sensor_id;sensor_type;location;lat;lon;timestamp;temperature;humidity
57088;DHT22;42965;52.846;6.614;2023-03-01T00:01:08;-0.20;99.90
57088;DHT22;42965;52.846;6.614;2023-03-01T00:03:35;-0.20;99.90
57088;DHT22;42965;52.846;6.614;2023-03-01T00:06:09;-0.20;99.90
57088;DHT22;42965;52.846;6.614;2023-03-01T00:08:36;-0.30;99.90
57088;DHT22;42965;52.846;6.614;2023-03-01T00:11:21;-0.30;99.90
57088;DHT22;42965;52.846;6.614;2023-03-01T00:13:53;-0.40;99.90
57088;DHT22;42965;52.846;6.614;2023-03-01T00:16:31;-0.50;99.90
57088;DHT22;42965;52.846;6.614;2023-03-01T00:18:59;-0.50;99.90
57088;DHT22;42965;52.846;6.614;2023-03-01T00:21:26;-0.50;99.90
57088;DHT22;42965;52.846;6.614;2023-03-01T00:23:53;-0.50;99.90
57088;DHT22;42965;52.846;6.614;2023-03-01T00:26:21;-0.50;99.90
57088;DHT22;42965;52.846;6.614;2023-03-01T00:28:48;-0.50;99.90
57088;DHT22;42965;52.846;6.614;2023-03-01T00:31:16;-0.50;99.90
57088;DHT22;42965;52.846;6.614;2023-03-01T00:33:44;-0.50;99.90
57088;DHT22;42965;52.846;6.614;2023-03-01T00:36:12;-0.60;99.90
57088;DHT22;42965;52.846;6.614;2023-03-01T00:38:41;-0.60;99.90
57088;DHT22;42965;52.846;6.614;2023-03-01T00:41:11;-0.60;99.90
57088;DHT22;42965;52.846;6.614;2023-03-01T00:43:38;-0.60;99.90
57088;DHT22;42965;52.846;6.614;2023-03-01T00:46:31;-0.70;99.90
57088;DHT22;42965;52.846;6.614;2023-03-01T00:48:58;-0.60;99.90
57088;DHT22;42965;52.846;6.614;2023-03-01T00:51:28;-0.70;99.90
57088;DHT22;42965;52.846;6.614;2023-03-01T00:53:58;-0.70;99.90
57088;DHT22;42965;52.846;6.614;2023-03-01T00:56:25;-0.70;99.90
57088;DHT22;42965;52.846;6.614;2023-03-01T00:58:52;-0.70;99.90
57088;DHT22;42965;52.846;6.614;2023-03-01T01:01:21;-0.70;99.90
57088;DHT22;42965;52.846;6.614;2023-03-01T01:03:49;-0.80;99.90
57088;DHT22;42965;52.846;6.614;2023-03-01T01:06:26;-0.70;99.90
57088;DHT22;42965;52.846;6.614;2023-03-01T01:08:53;-0.90;99.90
57088;DHT22;42965;52.846;6.614;2023-03-01T01:11:21;-0.80;99.90
57088;DHT22;42965;52.846;6.614;2023-03-01T01:13:48;-0.80;99.90
57088;DHT22;42965;52.846;6.614;2023-03-01T01:16:15;-0.80;99.90
57088;DHT22;42965;52.846;6.614;2023-03-01T01:18:45;-0.80;99.90
57088;DHT22;42965;52.846;6.614;2023-03-01T01:21:19;-0.90;99.90
57088;DHT22;42965;52.846;6.614;2023-03-01T01:23:46;-0.90;99.90
57088;DHT22;42965;52.846;6.614;2023-03-01T01:26:21;-0.90;99.90
57088;DHT22;42965;52.846;6.614;2023-03-01T01:28:50;-1.00;99.90
57088;DHT22;42965;52.846;6.614;2023-03-01T01:31:17;-1.00;99.90
57088;DHT22;42965;52.846;6.614;2023-03-01T01:33:44;-1.00;99.90
57088;DHT22;42965;52.846;6.614;2023-03-01T01:36:11;-1.00;99.90
57088;DHT22;42965;52.846;6.614;2023-03-01T01:38:38;-1.10;99.90
57088;DHT22;42965;52.846;6.614;2023-03-01T01:41:05;-1.10;99.90
57088;DHT22;42965;52.846;6.614;2023-03-01T01:44:15;-1.00;99.90
57088;DHT22;42965;52.846;6.614;2023-03-01T01:51:43;-1.20;99.90
57088;DHT22;42965;52.846;6.614;2023-03-01T01:54:14;-1.20;99.90
57088;DHT22;42965;52.846;6.614;2023-03-01T01:56:46;-1.40;99.90
57088;DHT22;42965;52.846;6.614;2023-03-01T01:59:14;-1.40;99.90
57088;DHT22;42965;52.846;6.614;2023-03-01T02:01:41;-1.50;99.90
57088;DHT22;42965;52.846;6.614;2023-03-01T02:04:09;-1.50;99.90
57088;DHT22;42965;52.846;6.614;2023-03-01T02:06:47;-1.50;99.90
57088;DHT22;42965;52.846;6.614;2023-03-01T02:09:17;-1.50;99.90
57088;DHT22;42965;52.846;6.614;2023-03-01T02:11:49;-1.50;99.90
57088;DHT22;42965;52.846;6.614;2023-03-01T02:14:16;-1.50;99.90
57088;DHT22;42965;52.846;6.614;2023-03-01T02:16:43;-1.50;99.90
57088;DHT22;42965;52.846;6.614;2023-03-01T02:19:17;-1.60;99.90
57088;DHT22;42965;52.846;6.614;2023-03-01T02:21:55;-1.60;99.90
57088;DHT22;42965;52.846;6.614;2023-03-01T02:27:38;-1.60;99.90
57088;DHT22;42965;52.846;6.614;2023-03-01T02:30:08;-1.60;99.90
57088;DHT22;42965;52.846;6.614;2023-03-01T02:32:38;-1.70;99.90
57088;DHT22;42965;52.846;6.614;2023-03-01T02:35:13;-1.60;99.90
57088;DHT22;42965;52.846;6.614;2023-03-01T02:37:41;-1.60;99.90
57088;DHT22;42965;52.846;6.614;2023-03-01T02:40:11;-1.70;99.90
57088;DHT22;42965;52.846;6.614;2023-03-01T02:43:06;-1.70;99.90
57088;DHT22;42965;52.846;6.614;2023-03-01T02:45:34;-1.80;99.90
57088;DHT22;42965;52.846;6.614;2023-03-01T02:48:00;-1.80;99.90
57088;DHT22;42965;52.846;6.614;2023-03-01T02:55:58;-1.90;99.90
57088;DHT22;42965;52.846;6.614;2023-03-01T02:58:26;-1.90;99.90
57088;DHT22;42965;52.846;6.614;2023-03-01T03:00:53;-1.90;99.90
57088;DHT22;42965;52.846;6.614;2023-03-01T03:03:21;-1.90;99.90
57088;DHT22;42965;52.846;6.614;2023-03-01T03:05:48;-2.00;99.90
57088;DHT22;42965;52.846;6.614;2023-03-01T03:08:16;-2.00;99.90
57088;DHT22;42965;52.846;6.614;2023-03-01T03:10:49;-2.00;99.90
57088;DHT22;42965;52.846;6.614;2023-03-01T03:13:16;-2.00;99.90
57088;DHT22;42965;52.846;6.614;2023-03-01T03:15:44;-2.10;99.90
57088;DHT22;42965;52.846;6.614;2023-03-01T03:18:16;-2.10;99.90
57088;DHT22;42965;52.846;6.614;2023-03-01T03:20:43;-2.10;99.90
57088;DHT22;42965;52.846;6.614;2023-03-01T03:23:10;-2.10;99.90
57088;DHT22;42965;52.846;6.614;2023-03-01T03:25:36;-2.20;99.90
57088;DHT22;42965;52.846;6.614;2023-03-01T03:28:04;-2.20;99.90
57088;DHT22;42965;52.846;6.614;2023-03-01T03:30:36;-2.20;99.90
57088;DHT22;42965;52.846;6.614;2023-03-01T03:33:05;-2.20;99.90
57088;DHT22;42965;52.846;6.614;2023-03-01T03:35:39;-2.20;99.90
57088;DHT22;42965;52.846;6.614;2023-03-01T03:38:07;-2.10;99.90
57088;DHT22;42965;52.846;6.614;2023-03-01T03:40:54;-2.20;99.90
57088;DHT22;42965;52.846;6.614;2023-03-01T03:43:27;-2.20;99.90
57088;DHT22;42965;52.846;6.614;2023-03-01T03:45:53;-2.10;99.90
57088;DHT22;42965;52.846;6.614;2023-03-01T03:48:23;-2.20;99.90
57088;DHT22;42965;52.846;6.614;2023-03-01T03:50:52;-2.20;99.90
57088;DHT22;42965;52.846;6.614;2023-03-01T03:53:20;-2.30;99.90
57088;DHT22;42965;52.846;6.614;2023-03-01T03:55:47;-2.20;99.90
57088;DHT22;42965;52.846;6.614;2023-03-01T03:58:15;-2.30;99.90
57088;DHT22;42965;52.846;6.614;2023-03-01T04:00:44;-2.30;99.90
57088;DHT22;42965;52.846;6.614;2023-03-01T04:03:12;-2.30;99.90
57088;DHT22;42965;52.846;6.614;2023-03-01T04:05:40;-2.30;99.90
57088;DHT22;42965;52.846;6.614;2023-03-01T04:08:07;-2.30;99.90
57088;DHT22;42965;52.846;6.614;2023-03-01T04:10:35;-2.40;99.90
57088;DHT22;42965;52.846;6.614;2023-03-01T04:13:04;-2.30;99.90
57088;DHT22;42965;52.846;6.614;2023-03-01T04:15:32;-2.40;99.90
57088;DHT22;42965;52.846;6.614;2023-03-01T04:18:05;-2.30;99.90
57088;DHT22;42965;52.846;6.614;2023-03-01T04:20:34;-2.40;99.90
57088;DHT22;42965;52.846;6.614;2023-03-01T04:23:14;-2.30;99.90
57088;DHT22;42965;52.846;6.614;2023-03-01T04:25:50;-2.40;99.90
57088;DHT22;42965;52.846;6.614;2023-03-01T04:28:25;-2.40;99.90
57088;DHT22;42965;52.846;6.614;2023-03-01T04:30:56;-2.40;99.90
57088;DHT22;42965;52.846;6.614;2023-03-01T04:33:23;-2.40;99.90
57088;DHT22;42965;52.846;6.614;2023-03-01T04:35:50;-2.40;99.90
57088;DHT22;42965;52.846;6.614;2023-03-01T04:38:18;-2.40;99.90
57088;DHT22;42965;52.846;6.614;2023-03-01T04:40:44;-2.40;99.90
57088;DHT22;42965;52.846;6.614;2023-03-01T04:43:11;-2.40;99.90
57088;DHT22;42965;52.846;6.614;2023-03-01T04:45:41;-2.50;99.90
57088;DHT22;42965;52.846;6.614;2023-03-01T04:48:09;-2.50;99.90
57088;DHT22;42965;52.846;6.614;2023-03-01T04:50:36;-2.50;99.90
57088;DHT22;42965;52.846;6.614;2023-03-01T04:53:04;-2.60;99.90
57088;DHT22;42965;52.846;6.614;2023-03-01T04:55:31;-2.60;99.90
57088;DHT22;42965;52.846;6.614;2023-03-01T04:57:57;-2.60;99.90
57088;DHT22;42965;52.846;6.614;2023-03-01T05:00:27;-2.70;99.90
57088;DHT22;42965;52.846;6.614;2023-03-01T05:02:55;-2.60;99.90
57088;DHT22;42965;52.846;6.614;2023-03-01T05:05:26;-2.60;99.90
57088;DHT22;42965;52.846;6.614;2023-03-01T05:07:54;-2.60;99.90
57088;DHT22;42965;52.846;6.614;2023-03-01T05:10:21;-2.70;99.90
57088;DHT22;42965;52.846;6.614;2023-03-01T05:12:49;-2.70;99.90
57088;DHT22;42965;52.846;6.614;2023-03-01T05:15:15;-2.70;99.90
57088;DHT22;42965;52.846;6.614;2023-03-01T05:17:42;-2.70;99.90
57088;DHT22;42965;52.846;6.614;2023-03-01T05:20:11;-2.70;99.90
57088;DHT22;42965;52.846;6.614;2023-03-01T05:22:38;-2.70;99.90
57088;DHT22;42965;52.846;6.614;2023-03-01T05:25:05;-2.70;99.90
57088;DHT22;42965;52.846;6.614;2023-03-01T05:27:33;-2.70;99.90
57088;DHT22;42965;52.846;6.614;2023-03-01T05:30:01;-2.80;99.90
57088;DHT22;42965;52.846;6.614;2023-03-01T05:32:50;-2.80;99.90
57088;DHT22;42965;52.846;6.614;2023-03-01T05:35:22;-2.80;99.90
57088;DHT22;42965;52.846;6.614;2023-03-01T05:37:49;-2.80;99.90
57088;DHT22;42965;52.846;6.614;2023-03-01T05:40:19;-2.90;99.90
57088;DHT22;42965;52.846;6.614;2023-03-01T05:42:53;-2.80;99.90
57088;DHT22;42965;52.846;6.614;2023-03-01T05:45:24;-2.90;99.90
57088;DHT22;42965;52.846;6.614;2023-03-01T05:47:52;-2.80;99.90
57088;DHT22;42965;52.846;6.614;2023-03-01T05:50:26;-2.90;99.90
57088;DHT22;42965;52.846;6.614;2023-03-01T05:53:02;-2.80;99.90
57088;DHT22;42965;52.846;6.614;2023-03-01T05:55:35;-2.90;99.90
57088;DHT22;42965;52.846;6.614;2023-03-01T05:58:04;-2.90;99.90
57088;DHT22;42965;52.846;6.614;2023-03-01T06:00:31;-2.90;99.90
57088;DHT22;42965;52.846;6.614;2023-03-01T06:02:58;-2.90;99.90
57088;DHT22;42965;52.846;6.614;2023-03-01T06:05:25;-2.90;99.90
57088;DHT22;42965;52.846;6.614;2023-03-01T06:07:52;-2.90;99.90
57088;DHT22;42965;52.846;6.614;2023-03-01T06:10:21;-2.80;99.90
57088;DHT22;42965;52.846;6.614;2023-03-01T06:12:49;-2.90;99.90
57088;DHT22;42965;52.846;6.614;2023-03-01T06:15:16;-2.80;99.90
57088;DHT22;42965;52.846;6.614;2023-03-01T06:17:44;-2.80;99.90
57088;DHT22;42965;52.846;6.614;2023-03-01T06:20:22;-2.80;99.90
57088;DHT22;42965;52.846;6.614;2023-03-01T06:22:49;-2.80;99.90
57088;DHT22;42965;52.846;6.614;2023-03-01T06:25:21;-2.80;99.90
57088;DHT22;42965;52.846;6.614;2023-03-01T06:27:48;-2.80;99.90
57088;DHT22;42965;52.846;6.614;2023-03-01T06:30:16;-2.80;99.90
57088;DHT22;42965;52.846;6.614;2023-03-01T06:32:43;-2.80;99.90
57088;DHT22;42965;52.846;6.614;2023-03-01T06:35:11;-2.90;99.90
57088;DHT22;42965;52.846;6.614;2023-03-01T06:37:39;-2.80;99.90
57088;DHT22;42965;52.846;6.614;2023-03-01T06:40:06;-2.80;99.90
57088;DHT22;42965;52.846;6.614;2023-03-01T06:42:40;-2.80;99.90
57088;DHT22;42965;52.846;6.614;2023-03-01T06:45:07;-2.80;99.90
57088;DHT22;42965;52.846;6.614;2023-03-01T06:47:34;-2.70;99.90
57088;DHT22;42965;52.846;6.614;2023-03-01T06:50:01;-2.70;99.90
57088;DHT22;42965;52.846;6.614;2023-03-01T06:52:31;-2.70;99.90
57088;DHT22;42965;52.846;6.614;2023-03-01T06:54:57;-2.70;99.90
57088;DHT22;42965;52.846;6.614;2023-03-01T06:57:27;-2.60;99.90
57088;DHT22;42965;52.846;6.614;2023-03-01T06:59:54;-2.60;99.90
57088;DHT22;42965;52.846;6.614;2023-03-01T07:02:21;-2.60;99.90
57088;DHT22;42965;52.846;6.614;2023-03-01T07:04:50;-2.50;99.90
57088;DHT22;42965;52.846;6.614;2023-03-01T07:07:17;-2.50;99.90
57088;DHT22;42965;52.846;6.614;2023-03-01T07:09:45;-2.50;99.90
57088;DHT22;42965;52.846;6.614;2023-03-01T07:12:12;-2.40;99.90
57088;DHT22;42965;52.846;6.614;2023-03-01T07:14:39;-2.40;99.90
57088;DHT22;42965;52.846;6.614;2023-03-01T07:17:10;-2.30;99.90
57088;DHT22;42965;52.846;6.614;2023-03-01T07:19:36;-2.20;99.90
57088;DHT22;42965;52.846;6.614;2023-03-01T07:22:04;-2.10;99.90
57088;DHT22;42965;52.846;6.614;2023-03-01T07:24:34;-2.00;99.90
57088;DHT22;42965;52.846;6.614;2023-03-01T07:27:01;-1.90;99.90
57088;DHT22;42965;52.846;6.614;2023-03-01T07:29:29;-1.80;99.90
57088;DHT22;42965;52.846;6.614;2023-03-01T07:31:56;-1.70;99.90
57088;DHT22;42965;52.846;6.614;2023-03-01T07:34:22;-1.50;99.90
57088;DHT22;42965;52.846;6.614;2023-03-01T07:36:51;-1.40;99.90
57088;DHT22;42965;52.846;6.614;2023-03-01T07:39:18;-1.20;99.90
57088;DHT22;42965;52.846;6.614;2023-03-01T07:41:44;-1.10;99.90
57088;DHT22;42965;52.846;6.614;2023-03-01T07:44:10;-0.90;99.90
57088;DHT22;42965;52.846;6.614;2023-03-01T07:46:39;-0.50;99.90
57088;DHT22;42965;52.846;6.614;2023-03-01T07:49:05;-0.10;99.90
57088;DHT22;42965;52.846;6.614;2023-03-01T07:51:32;0.20;99.90
57088;DHT22;42965;52.846;6.614;2023-03-01T07:53:58;0.50;99.90
57088;DHT22;42965;52.846;6.614;2023-03-01T07:56:24;1.00;99.90
57088;DHT22;42965;52.846;6.614;2023-03-01T07:58:51;1.50;99.90
57088;DHT22;42965;52.846;6.614;2023-03-01T08:01:19;1.90;99.90
57088;DHT22;42965;52.846;6.614;2023-03-01T08:03:46;2.40;99.90
57088;DHT22;42965;52.846;6.614;2023-03-01T08:06:16;3.00;99.90
57088;DHT22;42965;52.846;6.614;2023-03-01T08:08:43;3.50;99.90
57088;DHT22;42965;52.846;6.614;2023-03-01T08:11:12;4.10;99.90
57088;DHT22;42965;52.846;6.614;2023-03-01T08:13:49;4.50;99.90
57088;DHT22;42965;52.846;6.614;2023-03-01T08:16:19;4.70;99.90
57088;DHT22;42965;52.846;6.614;2023-03-01T08:18:45;5.30;99.90
57088;DHT22;42965;52.846;6.614;2023-03-01T08:21:16;5.70;99.90
57088;DHT22;42965;52.846;6.614;2023-03-01T08:23:43;6.00;99.90
57088;DHT22;42965;52.846;6.614;2023-03-01T08:26:13;6.40;99.90
57088;DHT22;42965;52.846;6.614;2023-03-01T08:28:40;6.90;99.90
57088;DHT22;42965;52.846;6.614;2023-03-01T08:31:34;6.90;99.90
57088;DHT22;42965;52.846;6.614;2023-03-01T08:34:10;7.30;99.90
57088;DHT22;42965;52.846;6.614;2023-03-01T08:36:41;7.70;99.90
57088;DHT22;42965;52.846;6.614;2023-03-01T08:39:09;8.60;99.90
57088;DHT22;42965;52.846;6.614;2023-03-01T08:41:37;8.40;99.90
57088;DHT22;42965;52.846;6.614;2023-03-01T08:44:06;8.70;99.90
57088;DHT22;42965;52.846;6.614;2023-03-01T08:46:38;8.90;99.90
57088;DHT22;42965;52.846;6.614;2023-03-01T08:49:09;9.40;99.90
57088;DHT22;42965;52.846;6.614;2023-03-01T08:51:35;9.80;99.90
57088;DHT22;42965;52.846;6.614;2023-03-01T08:54:19;9.20;99.90
57088;DHT22;42965;52.846;6.614;2023-03-01T08:56:46;9.80;99.90
57088;DHT22;42965;52.846;6.614;2023-03-01T08:59:13;10.10;99.90
57088;DHT22;42965;52.846;6.614;2023-03-01T09:01:49;10.50;99.90
57088;DHT22;42965;52.846;6.614;2023-03-01T09:04:16;10.80;99.90
57088;DHT22;42965;52.846;6.614;2023-03-01T09:06:42;11.10;99.90
57088;DHT22;42965;52.846;6.614;2023-03-01T09:09:17;11.40;99.90
57088;DHT22;42965;52.846;6.614;2023-03-01T09:11:44;11.40;94.90
57088;DHT22;42965;52.846;6.614;2023-03-01T09:14:13;11.70;99.90
57088;DHT22;42965;52.846;6.614;2023-03-01T09:16:40;12.00;99.20
57088;DHT22;42965;52.846;6.614;2023-03-01T09:19:13;12.20;99.90
57088;DHT22;42965;52.846;6.614;2023-03-01T09:21:39;12.50;99.90
57088;DHT22;42965;52.846;6.614;2023-03-01T09:24:11;12.60;94.80
57088;DHT22;42965;52.846;6.614;2023-03-01T09:26:38;12.90;92.80
57088;DHT22;42965;52.846;6.614;2023-03-01T09:29:04;13.10;92.60
57088;DHT22;42965;52.846;6.614;2023-03-01T09:31:30;13.30;79.70
57088;DHT22;42965;52.846;6.614;2023-03-01T09:33:57;13.90;67.30
57088;DHT22;42965;52.846;6.614;2023-03-01T09:36:24;13.50;63.80
57088;DHT22;42965;52.846;6.614;2023-03-01T09:38:54;13.60;64.20
57088;DHT22;42965;52.846;6.614;2023-03-01T09:44:30;13.80;59.90
57088;DHT22;42965;52.846;6.614;2023-03-01T09:46:59;14.40;60.40
57088;DHT22;42965;52.846;6.614;2023-03-01T09:49:35;14.50;58.60
57088;DHT22;42965;52.846;6.614;2023-03-01T09:52:18;14.60;58.70
57088;DHT22;42965;52.846;6.614;2023-03-01T09:54:47;14.50;55.80
57088;DHT22;42965;52.846;6.614;2023-03-01T09:57:20;15.00;56.00
57088;DHT22;42965;52.846;6.614;2023-03-01T10:00:20;15.30;54.80
57088;DHT22;42965;52.846;6.614;2023-03-01T10:02:49;15.30;51.40
57088;DHT22;42965;52.846;6.614;2023-03-01T10:05:27;15.20;52.00
57088;DHT22;42965;52.846;6.614;2023-03-01T10:10:48;15.60;50.40
57088;DHT22;42965;52.846;6.614;2023-03-01T10:13:17;15.00;49.10
57088;DHT22;42965;52.846;6.614;2023-03-01T10:15:57;15.20;49.90
57088;DHT22;42965;52.846;6.614;2023-03-01T10:18:30;15.50;48.80
57088;DHT22;42965;52.846;6.614;2023-03-01T10:21:05;15.20;48.20
57088;DHT22;42965;52.846;6.614;2023-03-01T10:23:38;15.80;49.80
57088;DHT22;42965;52.846;6.614;2023-03-01T10:31:14;15.50;47.10
57088;DHT22;42965;52.846;6.614;2023-03-01T10:33:43;15.90;48.20
57088;DHT22;42965;52.846;6.614;2023-03-01T10:36:09;16.30;48.50
57088;DHT22;42965;52.846;6.614;2023-03-01T10:38:54;16.40;48.60
57088;DHT22;42965;52.846;6.614;2023-03-01T10:41:22;16.50;45.30
57088;DHT22;42965;52.846;6.614;2023-03-01T10:43:58;16.10;46.40
57088;DHT22;42965;52.846;6.614;2023-03-01T10:51:42;16.20;46.10
57088;DHT22;42965;52.846;6.614;2023-03-01T10:54:35;16.40;45.20
57088;DHT22;42965;52.846;6.614;2023-03-01T10:57:04;16.10;44.00
57088;DHT22;42965;52.846;6.614;2023-03-01T10:59:40;16.40;45.10
57088;DHT22;42965;52.846;6.614;2023-03-01T11:02:23;16.20;43.60
57088;DHT22;42965;52.846;6.614;2023-03-01T11:08:09;15.90;44.60
57088;DHT22;42965;52.846;6.614;2023-03-01T11:13:58;16.80;42.20
57088;DHT22;42965;52.846;6.614;2023-03-01T11:16:37;17.10;42.20
57088;DHT22;42965;52.846;6.614;2023-03-01T11:19:21;17.20;41.70
57088;DHT22;42965;52.846;6.614;2023-03-01T11:22:28;17.30;42.00
57088;DHT22;42965;52.846;6.614;2023-03-01T11:24:54;18.00;41.20
57088;DHT22;42965;52.846;6.614;2023-03-01T11:27:38;17.80;42.00
57088;DHT22;42965;52.846;6.614;2023-03-01T11:30:24;17.50;41.70
57088;DHT22;42965;52.846;6.614;2023-03-01T11:35:30;17.70;41.80
57088;DHT22;42965;52.846;6.614;2023-03-01T11:40:38;17.20;42.10
57088;DHT22;42965;52.846;6.614;2023-03-01T11:57:00;17.50;41.20
57088;DHT22;42965;52.846;6.614;2023-03-01T12:08:42;17.80;42.00
57088;DHT22;42965;52.846;6.614;2023-03-01T12:25:41;18.10;43.40
57088;DHT22;42965;52.846;6.614;2023-03-01T12:34:08;18.10;41.60
57088;DHT22;42965;52.846;6.614;2023-03-01T12:42:55;18.50;41.40
57088;DHT22;42965;52.846;6.614;2023-03-01T12:51:26;18.50;41.40
57088;DHT22;42965;52.846;6.614;2023-03-01T12:53:55;18.20;40.50
57088;DHT22;42965;52.846;6.614;2023-03-01T12:56:29;17.80;41.40
57088;DHT22;42965;52.846;6.614;2023-03-01T12:59:06;17.90;40.40
57088;DHT22;42965;52.846;6.614;2023-03-01T13:07:34;18.30;41.50
57088;DHT22;42965;52.846;6.614;2023-03-01T13:10:23;18.20;41.50
57088;DHT22;42965;52.846;6.614;2023-03-01T13:13:02;17.60;39.90
57088;DHT22;42965;52.846;6.614;2023-03-01T13:15:32;17.70;41.60
57088;DHT22;42965;52.846;6.614;2023-03-01T13:23:13;17.90;41.50
57088;DHT22;42965;52.846;6.614;2023-03-01T13:30:58;18.30;40.90
57088;DHT22;42965;52.846;6.614;2023-03-01T13:35:54;18.10;42.40
57088;DHT22;42965;52.846;6.614;2023-03-01T13:46:38;18.30;42.20
57088;DHT22;42965;52.846;6.614;2023-03-01T13:49:13;18.40;42.90
57088;DHT22;42965;52.846;6.614;2023-03-01T13:51:40;18.60;42.60
57088;DHT22;42965;52.846;6.614;2023-03-01T13:54:11;19.40;41.80
57088;DHT22;42965;52.846;6.614;2023-03-01T13:56:38;19.60;41.80
57088;DHT22;42965;52.846;6.614;2023-03-01T14:01:42;18.80;41.60
57088;DHT22;42965;52.846;6.614;2023-03-01T14:04:31;17.80;41.90
57088;DHT22;42965;52.846;6.614;2023-03-01T14:07:12;17.60;43.10
57088;DHT22;42965;52.846;6.614;2023-03-01T14:09:44;17.70;42.80
57088;DHT22;42965;52.846;6.614;2023-03-01T14:18:14;16.90;44.20
57088;DHT22;42965;52.846;6.614;2023-03-01T14:20:46;17.90;43.90
57088;DHT22;42965;52.846;6.614;2023-03-01T14:23:21;17.60;44.50
57088;DHT22;42965;52.846;6.614;2023-03-01T14:25:54;17.90;43.50
57088;DHT22;42965;52.846;6.614;2023-03-01T14:28:27;18.20;43.20
57088;DHT22;42965;52.846;6.614;2023-03-01T14:30:56;18.20;42.70
57088;DHT22;42965;52.846;6.614;2023-03-01T14:33:26;17.90;42.60
57088;DHT22;42965;52.846;6.614;2023-03-01T14:35:59;18.30;42.30
57088;DHT22;42965;52.846;6.614;2023-03-01T14:38:37;18.60;41.30
57088;DHT22;42965;52.846;6.614;2023-03-01T14:41:25;19.00;40.60
57088;DHT22;42965;52.846;6.614;2023-03-01T14:44:20;19.30;40.40
57088;DHT22;42965;52.846;6.614;2023-03-01T14:46:55;18.70;40.10
57088;DHT22;42965;52.846;6.614;2023-03-01T14:49:29;18.20;40.00
57088;DHT22;42965;52.846;6.614;2023-03-01T14:52:06;18.30;41.30
57088;DHT22;42965;52.846;6.614;2023-03-01T14:54:44;19.30;41.50
57088;DHT22;42965;52.846;6.614;2023-03-01T14:57:26;18.80;41.30
57088;DHT22;42965;52.846;6.614;2023-03-01T14:59:54;18.30;41.50
57088;DHT22;42965;52.846;6.614;2023-03-01T15:02:26;18.20;41.40
57088;DHT22;42965;52.846;6.614;2023-03-01T15:04:56;17.90;42.70
57088;DHT22;42965;52.846;6.614;2023-03-01T15:07:28;18.20;42.30
57088;DHT22;42965;52.846;6.614;2023-03-01T15:09:56;17.50;42.40
57088;DHT22;42965;52.846;6.614;2023-03-01T15:14:56;18.40;41.20
57088;DHT22;42965;52.846;6.614;2023-03-01T15:17:32;17.90;41.40
57088;DHT22;42965;52.846;6.614;2023-03-01T15:20:02;18.30;40.80
57088;DHT22;42965;52.846;6.614;2023-03-01T15:22:35;18.00;41.30
57088;DHT22;42965;52.846;6.614;2023-03-01T15:25:26;17.50;42.10
57088;DHT22;42965;52.846;6.614;2023-03-01T15:27:55;17.50;42.70
57088;DHT22;42965;52.846;6.614;2023-03-01T15:30:29;17.50;42.70
57088;DHT22;42965;52.846;6.614;2023-03-01T15:33:18;17.10;42.90
57088;DHT22;42965;52.846;6.614;2023-03-01T15:35:48;17.20;43.30
57088;DHT22;42965;52.846;6.614;2023-03-01T15:39:23;16.70;44.10
57088;DHT22;42965;52.846;6.614;2023-03-01T15:41:54;16.70;44.30
57088;DHT22;42965;52.846;6.614;2023-03-01T15:44:30;15.90;44.90
57088;DHT22;42965;52.846;6.614;2023-03-01T15:46:57;16.00;45.20
57088;DHT22;42965;52.846;6.614;2023-03-01T15:49:35;15.80;45.60
57088;DHT22;42965;52.846;6.614;2023-03-01T15:52:03;15.60;46.90
57088;DHT22;42965;52.846;6.614;2023-03-01T15:54:31;15.40;46.60
57088;DHT22;42965;52.846;6.614;2023-03-01T15:57:00;14.80;46.80
57088;DHT22;42965;52.846;6.614;2023-03-01T15:59:27;14.50;48.20
57088;DHT22;42965;52.846;6.614;2023-03-01T16:01:56;14.70;48.50
57088;DHT22;42965;52.846;6.614;2023-03-01T16:04:31;14.70;48.70
57088;DHT22;42965;52.846;6.614;2023-03-01T16:06:58;13.50;50.10
57088;DHT22;42965;52.846;6.614;2023-03-01T16:09:26;12.80;51.70
57088;DHT22;42965;52.846;6.614;2023-03-01T16:11:58;12.00;53.70
57088;DHT22;42965;52.846;6.614;2023-03-01T16:14:25;11.30;55.60
57088;DHT22;42965;52.846;6.614;2023-03-01T16:16:51;11.00;57.20
57088;DHT22;42965;52.846;6.614;2023-03-01T16:19:19;10.70;57.60
57088;DHT22;42965;52.846;6.614;2023-03-01T16:21:45;10.20;59.80
57088;DHT22;42965;52.846;6.614;2023-03-01T16:24:14;10.10;60.50
57088;DHT22;42965;52.846;6.614;2023-03-01T16:26:40;9.90;61.50
57088;DHT22;42965;52.846;6.614;2023-03-01T16:29:08;9.70;63.50
57088;DHT22;42965;52.846;6.614;2023-03-01T16:31:34;9.40;66.60
57088;DHT22;42965;52.846;6.614;2023-03-01T16:34:00;9.50;68.90
57088;DHT22;42965;52.846;6.614;2023-03-01T16:36:27;9.20;73.00
57088;DHT22;42965;52.846;6.614;2023-03-01T16:38:59;9.20;75.70
57088;DHT22;42965;52.846;6.614;2023-03-01T16:41:27;8.90;81.90
57088;DHT22;42965;52.846;6.614;2023-03-01T16:43:53;8.80;88.60
57088;DHT22;42965;52.846;6.614;2023-03-01T16:46:28;8.80;94.30
57088;DHT22;42965;52.846;6.614;2023-03-01T16:48:55;8.70;98.30
57088;DHT22;42965;52.846;6.614;2023-03-01T16:51:23;8.70;99.90
57088;DHT22;42965;52.846;6.614;2023-03-01T16:53:50;8.50;99.90
57088;DHT22;42965;52.846;6.614;2023-03-01T16:56:19;8.50;99.90
57088;DHT22;42965;52.846;6.614;2023-03-01T16:58:45;8.30;99.90
57088;DHT22;42965;52.846;6.614;2023-03-01T17:01:14;8.10;99.90
57088;DHT22;42965;52.846;6.614;2023-03-01T17:03:43;8.10;99.90
57088;DHT22;42965;52.846;6.614;2023-03-01T17:06:12;8.10;99.90
57088;DHT22;42965;52.846;6.614;2023-03-01T17:08:39;8.00;99.90
57088;DHT22;42965;52.846;6.614;2023-03-01T17:11:17;8.00;99.90
57088;DHT22;42965;52.846;6.614;2023-03-01T17:13:47;7.90;99.90
57088;DHT22;42965;52.846;6.614;2023-03-01T17:16:17;7.90;99.90
57088;DHT22;42965;52.846;6.614;2023-03-01T17:18:45;7.80;99.90
57088;DHT22;42965;52.846;6.614;2023-03-01T17:21:12;7.70;99.90
57088;DHT22;42965;52.846;6.614;2023-03-01T17:23:41;7.70;99.90
57088;DHT22;42965;52.846;6.614;2023-03-01T17:26:09;7.60;99.90
57088;DHT22;42965;52.846;6.614;2023-03-01T17:28:42;7.50;99.90
57088;DHT22;42965;52.846;6.614;2023-03-01T17:31:10;7.40;99.90
57088;DHT22;42965;52.846;6.614;2023-03-01T17:33:37;7.20;99.90
57088;DHT22;42965;52.846;6.614;2023-03-01T17:36:03;7.20;99.90
57088;DHT22;42965;52.846;6.614;2023-03-01T17:38:30;7.00;99.90
57088;DHT22;42965;52.846;6.614;2023-03-01T17:40:59;7.00;99.90
57088;DHT22;42965;52.846;6.614;2023-03-01T17:43:26;6.90;99.90
57088;DHT22;42965;52.846;6.614;2023-03-01T17:45:53;6.80;99.90
57088;DHT22;42965;52.846;6.614;2023-03-01T17:48:19;6.80;99.90
57088;DHT22;42965;52.846;6.614;2023-03-01T17:50:46;6.70;99.90
57088;DHT22;42965;52.846;6.614;2023-03-01T17:53:12;6.60;99.90
57088;DHT22;42965;52.846;6.614;2023-03-01T17:55:40;6.60;99.90
57088;DHT22;42965;52.846;6.614;2023-03-01T17:58:08;6.50;99.90
57088;DHT22;42965;52.846;6.614;2023-03-01T18:00:39;6.50;99.90
57088;DHT22;42965;52.846;6.614;2023-03-01T18:03:11;6.40;99.90
57088;DHT22;42965;52.846;6.614;2023-03-01T18:05:37;6.40;99.90
57088;DHT22;42965;52.846;6.614;2023-03-01T18:08:03;6.20;99.90
57088;DHT22;42965;52.846;6.614;2023-03-01T18:10:31;6.20;99.90